"WATCHING THE WEATHER TO PROTECT LIFE AND PROPERTY"


THERE ARE CURRENTLY NO WATCHES NOR WARNINGS


Aviation
Satellite (InfraRed)


TNCA 262000Z 08018KT 9999 FEW025 28/21 Q1012 NOSIG
TNCB 262055Z 07012KT 040V100 9999 SCT018 SCT022 27/22 Q1012
TNCC 262100Z 07012KT 9999 BKN020 26/22 Q1013 TEMPO 5000 SHRA FEW016TCU